KSQL/SQL METAR and TAF weather

Enter ICAO airport designator
Station Type Date Time Source
KSQL METAR 2019/10/15 03:47 UTC NOAA

KSQL 150347Z VRB03KT 10SM SKC 14/09 A3001 RMK LAST


Station Type Date Time Source
KSQL Decoded METAR 2019/10/15 03:47 UTC NOAA

San Carlos Airport, CA, United States (KSQL) 37-31N 122-15W
Oct 14, 2019 - 11:47 PM EDT / 2019.10.15 0347 UTC
Wind: Variable at 3 MPH (3 KT):0
Visibility: 10 mile(s):0
Sky conditions: clear
Temperature: 57 F (14 C)
Dew Point: 48 F (9 C)
Relative Humidity: 71%
Pressure (altimeter): 30.01 in. Hg (1016 hPa)
ob: KSQL 150347Z VRB03KT 10SM SKC 14/09 A3001 RMK LAST
cycle: 4

Station Type Date Time Source
KSQL TAF UTC NOAA

Error!

Example: see airport list